Time;durP1;ratioP1;P1;durP2;ratioP2;P2;SDS_P1;SDS_P2;PMS_P1;PMS_P2;Temp;Humidity;BMP_temperature;BMP_pressure;BME280_temperature;BME280_humidity;BME280_pressure;Samples;Min_cycle;Max_cycle;Signal;HPM_P1;HPM_P2
2023/08/29 00:01:17;;;;;;;8.35;2.10;;;;;;;12.97;100.00;100256.41;4955306;28;20047;-64
2023/08/29 00:03:44;;;;;;;4.03;1.60;;;;;;;13.00;100.00;100257.88;4954364;28;20054;-64
2023/08/29 00:06:11;;;;;;;3.00;1.58;;;;;;;12.90;100.00;100244.69;4953277;28;20043;-64
2023/08/29 00:08:38;;;;;;;6.00;1.77;;;;;;;12.94;100.00;100237.94;4953469;28;20464;-64
2023/08/29 00:11:04;;;;;;;4.55;1.80;;;;;;;12.96;100.00;100243.09;4954301;28;20055;-64
2023/08/29 00:13:31;;;;;;;3.72;1.80;;;;;;;12.94;100.00;100234.38;4955472;28;20058;-64
2023/08/29 00:15:58;;;;;;;4.85;2.20;;;;;;;12.92;100.00;100239.97;4955826;28;20047;-64
2023/08/29 00:18:24;;;;;;;3.17;2.13;;;;;;;12.92;100.00;100247.22;4956710;28;20075;-64
2023/08/29 00:20:52;;;;;;;3.85;1.80;;;;;;;12.90;100.00;100247.38;4955708;28;20046;-64
2023/08/29 00:23:18;;;;;;;4.18;1.80;;;;;;;12.93;100.00;100238.09;4955211;28;20463;-64
2023/08/29 00:25:46;;;;;;;6.85;2.47;;;;;;;12.88;100.00;100246.75;4955310;28;20110;-64
2023/08/29 00:28:13;;;;;;;2.70;1.70;;;;;;;12.98;100.00;100241.06;4953299;28;20070;-65
2023/08/29 00:30:40;;;;;;;4.20;2.17;;;;;;;12.82;100.00;100242.94;4954053;28;20055;-65
2023/08/29 00:33:11;;;;;;;4.47;2.00;;;;;;;12.82;100.00;100240.25;4953082;28;20126;-65
2023/08/29 00:35:37;;;;;;;7.38;1.80;;;;;;;12.78;100.00;100241.63;4953435;28;20047;-65
2023/08/29 00:38:04;;;;;;;4.63;1.50;;;;;;;12.85;100.00;100242.56;4954368;28;20051;-65
2023/08/29 00:40:31;;;;;;;7.13;2.45;;;;;;;12.85;100.00;100241.72;4953306;28;20499;-65
2023/08/29 00:42:59;;;;;;;4.82;1.98;;;;;;;12.87;100.00;100234.31;4953613;28;20043;-65
2023/08/29 00:45:30;;;;;;;8.57;2.30;;;;;;;12.88;100.00;100231.41;4952418;28;20692;-65
2023/08/29 00:47:57;;;;;;;3.67;2.00;;;;;;;12.83;100.00;100239.25;4953320;28;20059;-65
2023/08/29 00:50:24;;;;;;;4.05;2.05;;;;;;;12.80;100.00;100236.91;4963301;28;20074;-65
2023/08/29 00:52:54;;;;;;;3.55;2.10;;;;;;;12.73;100.00;100235.97;4972225;28;20047;-65
2023/08/29 00:55:21;;;;;;;6.10;2.28;;;;;;;12.82;100.00;100237.53;4972667;28;20070;-65
2023/08/29 00:57:48;;;;;;;4.72;1.73;;;;;;;12.90;100.00;100235.78;4973306;28;20054;-65
2023/08/29 01:00:14;;;;;;;5.90;2.05;;;;;;;12.88;100.00;100236.81;4972829;28;20042;-65
2023/08/29 01:02:41;;;;;;;6.00;2.30;;;;;;;12.84;100.00;100235.50;4971694;28;20070;-65
2023/08/29 01:08:55;;;;;;;4.85;2.13;;;;;;;12.87;100.00;100223.53;4959412;28;20050;-65
2023/08/29 01:11:34;;;;;;;3.90;1.90;;;;;;;12.87;100.00;100237.84;4971276;28;20105;-65
2023/08/29 01:14:14;;;;;;;4.82;2.25;;;;;;;12.86;100.00;100236.16;4972418;28;20070;-65
2023/08/29 01:16:49;;;;;;;8.90;2.60;;;;;;;12.93;100.00;100249.69;4971763;28;20451;-65
2023/08/29 01:19:17;;;;;;;4.55;2.58;;;;;;;12.91;100.00;100245.53;4973054;28;20058;-64
2023/08/29 01:22:27;;;;;;;6.63;2.50;;;;;;;12.88;100.00;100236.81;4971823;28;20395;-65
2023/08/29 01:25:11;;;;;;;5.00;1.80;;;;;;;12.87;100.00;100237.00;4874193;29;20049;-65
2023/08/29 01:27:39;;;;;;;4.53;2.40;;;;;;;12.93;100.00;100236.22;4875442;29;20498;-66
2023/08/29 01:30:07;;;;;;;5.93;2.92;;;;;;;12.91;100.00;100221.31;4874180;29;20052;-66
2023/08/29 01:32:33;;;;;;;8.07;3.17;;;;;;;12.91;100.00;100226.69;4874303;29;20109;-66
2023/08/29 01:35:01;;;;;;;7.28;3.65;;;;;;;12.88;100.00;100227.91;4874323;29;20048;-66
2023/08/29 01:37:28;;;;;;;9.07;3.85;;;;;;;12.85;100.00;100245.25;4874336;29;20052;-65
2023/08/29 01:39:55;;;;;;;8.40;4.15;;;;;;;12.90;100.00;100260.00;4874441;29;20494;-65
2023/08/29 01:42:21;;;;;;;7.70;3.67;;;;;;;12.91;100.00;100261.69;4873987;29;20192;-65
2023/08/29 01:44:48;;;;;;;12.07;3.97;;;;;;;12.80;100.00;100255.75;4874936;29;20134;-65
2023/08/29 01:47:15;;;;;;;8.13;3.75;;;;;;;12.82;100.00;100252.88;4873313;29;20052;-65
2023/08/29 01:49:42;;;;;;;9.90;4.32;;;;;;;12.79;100.00;100245.16;4873290;29;20053;-65
2023/08/29 01:52:09;;;;;;;13.00;3.83;;;;;;;12.87;100.00;100232.44;4873912;29;20072;-64
2023/08/29 01:54:36;;;;;;;11.43;3.42;;;;;;;12.74;100.00;100232.28;4881972;28;20113;-64
2023/08/29 01:57:04;;;;;;;7.53;3.45;;;;;;;12.75;100.00;100228.53;4971097;28;20462;-64
2023/08/29 01:59:31;;;;;;;7.32;3.28;;;;;;;12.83;100.00;100224.91;4971095;28;20051;-64
2023/08/29 02:02:00;;;;;;;6.38;3.22;;;;;;;12.86;100.00;100222.69;4970793;28;20491;-64
2023/08/29 02:04:28;;;;;;;7.57;3.00;;;;;;;12.88;100.00;100217.97;4970402;28;20129;-64
2023/08/29 02:06:55;;;;;;;5.82;2.53;;;;;;;12.80;100.00;100210.00;4971766;28;20130;-64
2023/08/29 02:09:21;;;;;;;5.40;2.67;;;;;;;12.82;100.00;100207.94;4970840;28;20138;-64
2023/08/29 02:11:48;;;;;;;6.80;2.55;;;;;;;12.68;100.00;100203.38;4971964;28;20105;-64
2023/08/29 02:14:14;;;;;;;7.90;2.40;;;;;;;12.74;100.00;100208.03;4971107;28;20058;-65
2023/08/29 02:16:41;;;;;;;5.50;2.63;;;;;;;12.78;100.00;100205.81;4971626;28;20058;-65
2023/08/29 02:19:07;;;;;;;5.07;2.22;;;;;;;12.72;100.00;100219.97;4970886;28;20440;-65
2023/08/29 02:21:34;;;;;;;7.60;2.25;;;;;;;12.81;100.00;100222.44;4970624;28;20106;-65
2023/08/29 02:24:02;;;;;;;5.97;2.30;;;;;;;12.81;100.00;100235.88;4970523;28;20051;-65
2023/08/29 02:26:29;;;;;;;6.82;2.60;;;;;;;12.79;100.00;100234.41;4971249;28;20463;-65
2023/08/29 02:28:55;;;;;;;3.90;2.10;;;;;;;12.63;100.00;100230.03;4969817;28;20047;-65
2023/08/29 02:31:22;;;;;;;8.82;2.38;;;;;;;12.53;100.00;100224.09;4970640;28;20066;-65
2023/08/29 02:33:51;;;;;;;4.68;2.10;;;;;;;12.58;100.00;100224.34;4971125;28;20130;-65
2023/08/29 02:36:17;;;;;;;6.90;2.10;;;;;;;12.59;100.00;100226.88;4970870;28;20429;-65
2023/08/29 02:38:44;;;;;;;5.57;2.25;;;;;;;12.52;100.00;100228.63;4969804;28;20053;-65
2023/08/29 02:41:11;;;;;;;5.47;1.98;;;;;;;12.34;100.00;100226.28;4970878;28;20557;-64
2023/08/29 02:43:38;;;;;;;5.45;1.90;;;;;;;12.40;100.00;100228.22;4969939;28;20054;-64
2023/08/29 02:46:05;;;;;;;6.35;2.00;;;;;;;12.43;100.00;100221.66;4970230;28;20487;-65
2023/08/29 02:48:31;;;;;;;4.70;1.70;;;;;;;12.23;100.00;100221.34;4970338;28;20491;-65
2023/08/29 02:50:58;;;;;;;4.53;1.52;;;;;;;12.22;100.00;100208.09;4969898;28;20129;-65
2023/08/29 02:53:24;;;;;;;1.73;1.38;;;;;;;12.22;100.00;100192.78;4970379;28;20046;-64
2023/08/29 02:55:52;;;;;;;4.10;1.67;;;;;;;12.33;100.00;100203.09;4970815;28;20043;-65
2023/08/29 02:58:19;;;;;;;3.55;1.33;;;;;;;12.29;100.00;100203.66;4970942;28;20090;-65
2023/08/29 03:00:47;;;;;;;5.10;1.50;;;;;;;12.26;100.00;100199.47;4974357;28;20051;-65
2023/08/29 03:03:16;;;;;;;5.22;1.75;;;;;;;12.29;100.00;100201.78;4973900;28;20057;-65
2023/08/29 03:05:53;;;;;;;4.03;1.83;;;;;;;12.30;100.00;100192.69;4973922;28;20046;-65
2023/08/29 03:08:19;;;;;;;4.72;1.33;;;;;;;12.14;100.00;100182.97;4973950;28;20585;-66
2023/08/29 03:10:46;;;;;;;4.47;1.42;;;;;;;12.14;100.00;100179.41;4974129;28;20101;-65
2023/08/29 03:13:12;;;;;;;5.88;1.50;;;;;;;12.18;100.00;100175.38;4973154;28;20050;-65
2023/08/29 03:15:40;;;;;;;7.30;2.00;;;;;;;12.14;100.00;100165.97;4973490;28;20046;-65
2023/08/29 03:18:07;;;;;;;5.88;2.08;;;;;;;12.04;100.00;100154.69;4973927;28;20047;-65
2023/08/29 03:20:34;;;;;;;9.38;1.50;;;;;;;12.16;100.00;100145.13;4973829;28;20053;-65
2023/08/29 03:23:01;;;;;;;5.20;1.35;;;;;;;12.22;100.00;100148.94;4973953;28;20047;-65
2023/08/29 03:25:27;;;;;;;6.75;1.63;;;;;;;12.20;100.00;100151.78;4972896;28;20058;-65
2023/08/29 03:27:54;;;;;;;5.05;1.73;;;;;;;12.21;100.00;100147.25;4973679;28;20558;-65
2023/08/29 03:30:20;;;;;;;4.35;1.60;;;;;;;12.23;100.00;100156.81;4973890;28;20114;-65
2023/08/29 03:32:50;;;;;;;3.90;1.70;;;;;;;12.26;100.00;100145.69;4974528;28;20054;-65
2023/08/29 03:35:17;;;;;;;9.98;2.15;;;;;;;12.19;100.00;100150.13;4973597;28;20392;-65
2023/08/29 03:37:43;;;;;;;4.97;1.35;;;;;;;12.09;100.00;100142.34;4972768;28;20484;-65
2023/08/29 03:40:11;;;;;;;5.88;1.67;;;;;;;12.23;100.00;100150.59;4973543;28;20047;-65
2023/08/29 03:42:37;;;;;;;5.05;1.55;;;;;;;12.15;100.00;100141.59;4973294;28;20514;-65
2023/08/29 03:45:05;;;;;;;5.55;1.88;;;;;;;11.99;100.00;100130.19;4973599;28;20051;-65
2023/08/29 03:47:33;;;;;;;5.75;1.63;;;;;;;11.97;100.00;100113.38;4973431;28;20121;-65
2023/08/29 03:50:02;;;;;;;4.93;1.55;;;;;;;12.00;100.00;100116.53;4972006;28;20046;-65
2023/08/29 03:52:29;;;;;;;5.78;1.58;;;;;;;12.09;100.00;100109.25;4973021;28;20050;-65
2023/08/29 03:54:56;;;;;;;8.18;1.30;;;;;;;12.09;100.00;100093.09;4971768;28;20585;-65
2023/08/29 03:57:23;;;;;;;3.75;1.67;;;;;;;12.06;100.00;100094.31;4972260;28;20042;-65
2023/08/29 03:59:49;;;;;;;7.15;1.63;;;;;;;11.83;100.00;100099.78;4972828;28;20050;-65
2023/08/29 04:02:16;;;;;;;5.65;1.30;;;;;;;11.79;100.00;100095.75;4971448;28;20407;-65
2023/08/29 04:04:44;;;;;;;2.67;1.48;;;;;;;11.79;100.00;100095.75;4972896;28;20125;-65
2023/08/29 04:07:11;;;;;;;5.85;1.60;;;;;;;11.82;100.00;100100.78;4972297;28;20478;-65
2023/08/29 04:09:39;;;;;;;8.88;1.67;;;;;;;11.84;100.00;100096.06;4954745;28;20109;-65
2023/08/29 04:12:08;;;;;;;4.35;1.60;;;;;;;11.78;100.00;100096.78;4972797;28;20051;-65
2023/08/29 04:14:37;;;;;;;3.85;1.60;;;;;;;11.77;100.00;100095.13;4971587;28;20133;-65
2023/08/29 04:17:04;;;;;;;4.20;1.73;;;;;;;11.85;100.00;100103.09;4955309;28;20046;-65
2023/08/29 04:19:30;;;;;;;6.07;1.98;;;;;;;11.86;100.00;100104.78;4972284;28;20057;-65
2023/08/29 04:21:57;;;;;;;2.78;1.85;;;;;;;11.75;100.00;100096.31;4971991;28;20050;-65
2023/08/29 04:24:24;;;;;;;9.07;1.85;;;;;;;11.71;100.00;100100.41;4954933;28;20404;-65
2023/08/29 04:26:52;;;;;;;3.58;1.95;;;;;;;11.69;100.00;100097.91;4971986;28;20074;-65
2023/08/29 04:29:19;;;;;;;5.65;2.03;;;;;;;11.52;100.00;100096.31;4972810;28;20049;-65
2023/08/29 04:31:46;;;;;;;7.80;1.88;;;;;;;11.46;100.00;100082.63;4971761;28;20570;-65
2023/08/29 04:34:14;;;;;;;3.45;1.50;;;;;;;11.44;100.00;100089.19;4972227;28;20542;-66
2023/08/29 04:36:40;;;;;;;6.82;1.63;;;;;;;11.34;100.00;100083.22;4972313;28;20054;-66
2023/08/29 04:39:07;;;;;;;4.50;1.83;;;;;;;11.28;100.00;100079.44;4971989;28;20494;-64
2023/08/29 04:41:33;;;;;;;6.15;1.65;;;;;;;11.29;100.00;100081.09;4971968;28;20054;-65
2023/08/29 04:44:00;;;;;;;7.13;2.20;;;;;;;11.14;100.00;100066.78;4971225;28;20043;-64
2023/08/29 04:46:27;;;;;;;5.47;2.30;;;;;;;11.14;100.00;100064.13;4971735;28;20078;-64
2023/08/29 04:48:55;;;;;;;3.78;1.98;;;;;;;11.07;100.00;100058.63;4971879;28;20042;-65
2023/08/29 04:51:23;;;;;;;5.20;1.83;;;;;;;10.97;100.00;100071.44;4970998;28;20105;-64
2023/08/29 04:53:49;;;;;;;5.10;2.17;;;;;;;10.85;100.00;100046.03;4972202;28;20419;-64
2023/08/29 04:56:16;;;;;;;6.68;1.90;;;;;;;10.74;100.00;100037.38;4971953;28;20078;-64
2023/08/29 04:58:43;;;;;;;8.95;1.80;;;;;;;10.70;100.00;100028.03;4971200;28;20042;-65
2023/08/29 05:01:10;;;;;;;10.30;2.45;;;;;;;10.80;100.00;100037.69;4971489;28;20046;-65
2023/08/29 05:03:37;;;;;;;4.18;2.08;;;;;;;10.82;100.00;100036.47;4971415;28;20054;-65
2023/08/29 05:06:04;;;;;;;4.70;1.90;;;;;;;10.84;100.00;100039.84;4953806;28;20043;-65
2023/08/29 05:08:34;;;;;;;8.48;2.30;;;;;;;10.78;100.00;100028.97;4971690;28;20050;-64
2023/08/29 05:11:02;;;;;;;14.32;2.42;;;;;;;10.76;100.00;100026.47;4971530;28;20050;-64
2023/08/29 05:13:29;;;;;;;9.15;2.20;;;;;;;10.70;100.00;100021.81;4971080;28;20133;-65
2023/08/29 05:15:55;;;;;;;10.90;2.40;;;;;;;10.80;100.00;100026.97;4971660;28;20076;-66
2023/08/29 05:18:22;;;;;;;7.80;1.95;;;;;;;10.79;100.00;100036.88;4971569;28;20062;-65
2023/08/29 05:20:48;;;;;;;10.55;2.22;;;;;;;10.07;100.00;99956.66;4971506;28;20466;-65
2023/08/29 05:23:15;;;;;;;10.35;2.38;;;;;;;9.31;100.00;99829.63;4970934;28;20101;-65
2023/08/29 05:25:42;;;;;;;10.13;2.58;;;;;;;9.24;100.00;99812.59;4970974;28;20046;-65
2023/08/29 05:28:09;;;;;;;5.60;2.33;;;;;;;9.28;100.00;99822.78;4970929;28;20077;-65
2023/08/29 05:30:35;;;;;;;7.78;2.65;;;;;;;9.20;100.00;99812.06;4970761;28;20134;-64
2023/08/29 05:33:02;;;;;;;10.05;2.38;;;;;;;9.26;100.00;99824.78;4970388;28;20113;-64
2023/08/29 05:35:28;;;;;;;8.98;2.47;;;;;;;9.06;100.00;99796.75;4971252;28;20055;-64
2023/08/29 05:37:55;;;;;;;8.05;2.35;;;;;;;8.91;100.00;99756.47;4971155;28;20043;-64
2023/08/29 05:40:21;;;;;;;9.70;3.22;;;;;;;8.75;100.00;99721.81;4971197;28;20046;-65
2023/08/29 05:42:48;;;;;;;6.78;2.50;;;;;;;8.51;100.00;99693.31;4971045;28;20070;-64
2023/08/29 05:45:14;;;;;;;6.63;3.10;;;;;;;8.18;100.00;99657.81;4970897;28;20055;-65
2023/08/29 05:47:41;;;;;;;6.53;2.72;;;;;;;7.84;100.00;99608.94;4971277;28;20499;-64
2023/08/29 05:50:08;;;;;;;10.32;3.17;;;;;;;8.13;100.00;99642.31;4970280;28;20043;-64
2023/08/29 05:52:35;;;;;;;7.25;3.08;;;;;;;8.42;100.00;99676.44;4970850;28;20058;-65
2023/08/29 05:55:02;;;;;;;9.10;2.95;;;;;;;8.38;100.00;99670.59;4971931;28;20046;-64
2023/08/29 05:57:29;;;;;;;7.22;2.67;;;;;;;8.40;100.00;99673.13;4972090;28;20492;-64
2023/08/29 05:59:55;;;;;;;6.63;2.58;;;;;;;8.79;100.00;99733.81;4971067;28;20043;-64
2023/08/29 06:02:22;;;;;;;7.22;3.00;;;;;;;9.04;100.00;99766.66;4971477;28;20043;-65
2023/08/29 06:04:48;;;;;;;11.35;2.55;;;;;;;9.02;100.00;99763.28;4973305;28;20050;-64
2023/08/29 06:07:15;;;;;;;10.25;2.90;;;;;;;9.10;100.00;99755.25;4971923;28;20098;-64
2023/08/29 06:09:42;;;;;;;12.30;3.33;;;;;;;9.40;100.00;99798.28;4972751;28;20057;-64
2023/08/29 06:12:08;;;;;;;9.82;3.28;;;;;;;9.35;100.00;99781.94;4971544;28;20050;-64
2023/08/29 06:14:35;;;;;;;5.53;3.13;;;;;;;9.41;100.00;99806.16;4971003;28;20129;-64
2023/08/29 06:17:02;;;;;;;9.20;3.25;;;;;;;9.26;100.00;99811.38;4971019;28;20392;-65
2023/08/29 06:19:28;;;;;;;10.48;3.72;;;;;;;9.49;100.00;99837.41;4971048;28;20055;-65
2023/08/29 06:21:55;;;;;;;16.00;4.40;;;;;;;9.49;100.00;99803.44;4970891;28;20455;-64
2023/08/29 06:24:21;;;;;;;6.50;3.20;;;;;;;9.93;100.00;99850.22;4971142;28;20499;-64
2023/08/29 06:26:49;;;;;;;3.75;3.20;;;;;;;10.20;100.00;99918.53;4970749;28;20050;-64
2023/08/29 06:29:16;;;;;;;10.52;2.97;;;;;;;10.25;100.00;99900.09;4970975;28;20458;-65
2023/08/29 06:31:43;;;;;;;7.82;3.00;;;;;;;10.44;100.00;99910.34;4970095;28;20042;-65
2023/08/29 06:34:10;;;;;;;5.78;2.92;;;;;;;10.68;100.00;99917.34;4973309;28;20101;-65
2023/08/29 06:36:38;;;;;;;6.70;3.00;;;;;;;11.11;100.00;99986.63;4974074;28;20050;-65
2023/08/29 06:39:04;;;;;;;7.97;3.20;;;;;;;11.01;100.00;100002.13;4973024;28;20051;-64
2023/08/29 06:41:31;;;;;;;4.30;3.10;;;;;;;11.21;100.00;100019.41;4973625;28;20474;-65
2023/08/29 06:43:58;;;;;;;6.32;3.45;;;;;;;11.31;100.00;100038.78;4973668;28;20408;-64
2023/08/29 06:46:24;;;;;;;9.32;3.47;;;;;;;11.37;100.00;100042.59;4974154;28;20046;-64
2023/08/29 06:48:51;;;;;;;10.18;3.17;;;;;;;11.39;100.00;100060.19;4974388;28;20050;-65
2023/08/29 06:51:17;;;;;;;7.15;3.30;;;;;;;11.53;100.00;100065.78;4973958;28;20043;-64
2023/08/29 06:53:44;;;;;;;13.27;4.00;;;;;;;11.52;100.00;100069.47;4973355;28;20113;-65
2023/08/29 06:56:10;;;;;;;6.00;2.97;;;;;;;11.65;100.00;100091.16;4974043;28;20046;-65
2023/08/29 06:58:38;;;;;;;9.40;3.25;;;;;;;11.86;100.00;100112.00;4956254;28;20058;-68
2023/08/29 07:01:05;;;;;;;11.77;3.00;;;;;;;11.93;100.00;100132.59;4973887;28;20043;-67
2023/08/29 07:03:31;;;;;;;8.52;3.22;;;;;;;11.83;100.00;100134.72;4973847;28;20046;-68
2023/08/29 07:05:59;;;;;;;5.40;3.40;;;;;;;11.82;100.00;100143.78;4973967;28;20055;-68
2023/08/29 07:08:26;;;;;;;9.45;3.53;;;;;;;12.13;100.00;100161.63;4973521;28;20050;-69
2023/08/29 07:10:52;;;;;;;8.07;3.53;;;;;;;11.85;100.00;100161.41;4973365;28;20381;-68
2023/08/29 07:13:19;;;;;;;8.95;3.40;;;;;;;11.72;100.00;100156.63;4973664;28;20113;-69
2023/08/29 07:15:47;;;;;;;10.02;3.70;;;;;;;11.78;100.00;100157.75;4973483;28;20046;-69
2023/08/29 07:18:14;;;;;;;9.98;4.05;;;;;;;11.60;100.00;100128.50;4972808;28;20050;-69
2023/08/29 07:20:41;;;;;;;8.48;3.00;;;;;;;11.59;100.00;100116.09;4972054;28;20055;-69
2023/08/29 07:23:08;;;;;;;9.20;4.00;;;;;;;11.45;100.00;100115.88;4973508;28;20117;-68
2023/08/29 07:25:41;;;;;;;8.95;3.58;;;;;;;11.69;100.00;100141.72;4972435;28;20499;-69
2023/08/29 07:28:09;;;;;;;6.00;3.72;;;;;;;11.74;100.00;100148.41;4973082;28;20047;-69
2023/08/29 07:30:44;;;;;;;8.77;4.38;;;;;;;11.51;100.00;100122.34;4972902;28;20418;-68
2023/08/29 07:33:12;;;;;;;8.80;4.72;;;;;;;11.39;100.00;100130.03;4972777;28;20130;-70
2023/08/29 07:35:39;;;;;;;9.38;4.70;;;;;;;11.39;100.00;100126.50;4973015;28;20059;-69
2023/08/29 07:38:07;;;;;;;7.20;4.50;;;;;;;10.89;100.00;100058.91;4973471;28;20550;-68
2023/08/29 07:40:34;;;;;;;9.60;4.40;;;;;;;10.58;100.00;100040.19;4973735;28;20051;-69
2023/08/29 07:43:06;;;;;;;8.73;4.80;;;;;;;9.40;100.00;99852.66;4973405;28;20447;-69
2023/08/29 07:45:33;;;;;;;9.98;4.93;;;;;;;8.90;100.00;99786.09;4972219;28;20051;-68
2023/08/29 07:48:00;;;;;;;11.43;5.97;;;;;;;7.46;100.00;99561.59;4973930;28;20055;-68
2023/08/29 07:50:27;;;;;;;11.02;5.78;;;;;;;6.94;100.00;99469.44;4973851;28;20169;-68
2023/08/29 07:52:55;;;;;;;10.70;6.03;;;;;;;7.55;100.00;99560.59;4974879;28;20054;-68
2023/08/29 07:55:22;;;;;;;8.73;5.50;;;;;;;8.47;100.00;99683.94;4975624;28;20396;-67
2023/08/29 07:57:48;;;;;;;17.23;5.72;;;;;;;8.99;100.00;99753.81;4974955;28;20102;-67
2023/08/29 08:00:17;;;;;;;13.65;5.60;;;;;;;9.07;100.00;99739.53;4974644;28;20051;-67
2023/08/29 08:02:44;;;;;;;13.35;5.75;;;;;;;9.15;100.00;99746.69;4975698;28;20487;-69
2023/08/29 08:05:12;;;;;;;10.50;5.78;;;;;;;8.98;100.00;99717.34;4977546;28;20054;-68
2023/08/29 08:07:41;;;;;;;14.70;5.97;;;;;;;8.67;100.00;99679.84;4978175;28;20043;-68
2023/08/29 08:10:08;;;;;;;12.85;6.32;;;;;;;8.03;100.00;99581.06;4980469;28;20392;-68
2023/08/29 08:12:37;;;;;;;11.80;6.03;;;;;;;8.35;100.00;99649.56;4969057;28;20051;-69
2023/08/29 08:15:05;;;;;;;11.60;6.65;;;;;;;8.37;100.00;99652.09;4977463;28;20042;-68
2023/08/29 08:17:32;;;;;;;13.82;5.93;;;;;;;8.69;100.00;99687.72;4977473;28;20050;-68
2023/08/29 08:19:59;;;;;;;14.40;6.57;;;;;;;8.92;100.00;99715.38;4977099;28;20057;-68
2023/08/29 08:22:26;;;;;;;14.10;6.50;;;;;;;8.92;100.00;99720.72;4975651;28;20082;-68
2023/08/29 08:24:52;;;;;;;12.10;6.95;;;;;;;8.99;100.00;99727.03;4976962;28;20397;-68
2023/08/29 08:27:19;;;;;;;13.43;6.45;;;;;;;9.35;100.00;99764.03;4963290;28;20476;-69
2023/08/29 08:29:46;;;;;;;15.18;5.95;;;;;;;9.81;100.00;99822.97;4957406;28;20110;-67
2023/08/29 08:32:12;;;;;;;13.93;5.55;;;;;;;9.99;100.00;99850.34;4955887;28;20065;-68
2023/08/29 08:34:41;;;;;;;10.23;5.93;;;;;;;10.11;100.00;99866.00;4955211;28;20062;-68
2023/08/29 08:37:08;;;;;;;12.68;6.28;;;;;;;10.37;100.00;99897.81;4955069;28;20492;-68
2023/08/29 08:39:36;;;;;;;10.35;5.85;;;;;;;10.20;100.00;99892.59;4954745;28;20519;-70
2023/08/29 08:42:03;;;;;;;8.18;5.30;;;;;;;10.49;100.00;99918.66;4954237;28;20039;-68
2023/08/29 08:44:34;;;;;;;9.52;5.78;;;;;;;10.87;100.00;99955.47;4953663;28;20133;-68
2023/08/29 08:47:00;;;;;;;9.45;4.72;;;;;;;10.66;100.00;99940.88;4953766;28;20061;-68
2023/08/29 08:49:28;;;;;;;9.23;5.18;;;;;;;10.50;100.00;99911.50;4953617;28;20055;-68
2023/08/29 08:51:58;;;;;;;8.68;5.15;;;;;;;11.23;100.00;99998.56;4953710;28;20106;-68
2023/08/29 08:54:25;;;;;;;9.07;4.75;;;;;;;11.54;100.00;100037.91;4954485;28;20063;-69
2023/08/29 08:56:52;;;;;;;8.68;5.18;;;;;;;11.88;100.00;100070.47;4954516;28;20463;-68
2023/08/29 08:59:19;;;;;;;15.73;4.80;;;;;;;12.34;100.00;100115.16;4954244;28;20447;-67
2023/08/29 09:01:45;;;;;;;13.18;4.60;;;;;;;12.24;100.00;100106.53;4960645;28;20451;-68
2023/08/29 09:04:12;;;;;;;9.93;4.38;;;;;;;12.20;100.00;100106.06;4973462;28;21911;-68
2023/08/29 09:06:39;;;;;;;9.18;4.10;;;;;;;12.80;100.00;100141.84;4973843;28;20114;-68
2023/08/29 09:09:19;;;;;;;9.75;4.20;;;;;;;13.05;100.00;100166.59;4973617;28;20047;-69
2023/08/29 09:11:51;;;;;;;9.25;4.45;;;;;;;12.98;100.00;100165.69;4975009;28;20042;-68
2023/08/29 09:14:18;;;;;;;;;;;;;;;13.52;100.00;100189.44;4974682;28;20093;-68
2023/08/29 09:16:45;;;;;;;7.63;3.50;;;;;;;13.47;100.00;100191.91;4974509;28;19973;-68
2023/08/29 09:19:16;;;;;;;10.02;3.95;;;;;;;13.49;100.00;100184.44;4974232;28;20051;-68
2023/08/29 09:21:44;;;;;;;4.93;3.13;;;;;;;13.83;100.00;100189.13;4974323;28;20069;-66
2023/08/29 09:24:21;;;;;;;8.05;3.08;;;;;;;13.42;100.00;100197.00;4974808;28;20047;-68
2023/08/29 09:26:47;;;;;;;11.25;5.03;;;;;;;13.07;100.00;100186.06;4974779;28;20051;-68
2023/08/29 09:29:19;;;;;;;7.22;3.13;;;;;;;13.15;100.00;100190.53;4973310;28;20046;-68
2023/08/29 09:31:49;;;;;;;6.40;3.20;;;;;;;13.06;100.00;100179.03;4973614;28;20070;-68
2023/08/29 09:34:31;;;;;;;4.18;2.20;;;;;;;13.54;100.00;100182.84;4973130;28;20055;-67
2023/08/29 09:36:58;;;;;;;2.90;1.90;;;;;;;13.68;100.00;100205.38;4973606;28;20105;-67
2023/08/29 09:39:26;;;;;;;13.20;2.60;;;;;;;13.85;100.00;100208.66;4973671;28;20078;-68
2023/08/29 09:42:01;;;;;;;10.63;2.95;;;;;;;13.34;100.00;100206.88;4973888;28;20101;-68
2023/08/29 09:44:29;;;;;;;3.80;2.17;;;;;;;13.22;100.00;100181.50;4973944;28;20047;-69
2023/08/29 09:46:56;;;;;;;7.28;2.22;;;;;;;13.16;100.00;100213.75;4974046;28;20064;-66
2023/08/29 09:49:30;;;;;;;8.38;3.10;;;;;;;12.43;100.00;100202.81;4973551;28;20476;-67
2023/08/29 09:52:01;;;;;;;4.82;2.80;;;;;;;12.13;100.00;100157.06;4974350;28;20051;-68
2023/08/29 09:54:29;;;;;;;9.75;3.53;;;;;;;12.13;100.00;100156.25;4974155;28;20454;-67
2023/08/29 09:56:58;;;;;;;4.45;2.72;;;;;;;12.47;100.00;100144.94;4956267;28;20111;-69
2023/08/29 09:59:27;;;;;;;6.43;2.42;;;;;;;12.90;100.00;100172.00;4972762;28;20050;-69
2023/08/29 10:01:54;;;;;;;6.88;2.97;;;;;;;12.97;100.00;100169.38;4974265;28;20495;-69
2023/08/29 10:04:22;;;;;;;8.00;2.80;;;;;;;13.15;100.00;100185.97;4975055;28;20091;-68
2023/08/29 10:06:53;;;;;;;4.55;3.08;;;;;;;13.33;100.00;100183.69;4974172;28;20043;-68
2023/08/29 10:09:21;;;;;;;9.68;3.50;;;;;;;13.35;100.00;100191.56;4977074;28;20051;-69
2023/08/29 10:11:49;;;;;;;5.32;2.75;;;;;;;13.32;100.00;100194.66;4958781;28;20050;-68
2023/08/29 10:14:22;;;;;;;8.77;3.30;;;;;;;13.30;100.00;100194.84;4975680;28;20061;-68
2023/08/29 10:16:49;;;;;;;4.90;2.83;;;;;;;13.21;100.00;100184.34;4975720;28;20055;-69
2023/08/29 10:19:18;;;;;;;8.18;2.65;;;;;;;13.24;100.00;100182.13;4975661;28;20047;-69
2023/08/29 10:21:48;;;;;;;5.72;3.03;;;;;;;13.50;100.00;100172.66;4975270;28;20058;-69
2023/08/29 10:24:15;;;;;;;6.63;3.08;;;;;;;13.53;100.00;100167.72;4974812;28;20451;-69
2023/08/29 10:26:43;;;;;;;7.22;3.15;;;;;;;13.54;100.00;100179.31;4974207;28;20051;-69
2023/08/29 10:29:10;;;;;;;6.15;2.88;;;;;;;13.73;100.00;100197.53;4974612;28;20071;-70
2023/08/29 10:31:38;;;;;;;4.38;3.00;;;;;;;13.86;100.00;100198.72;4975231;28;20101;-70
2023/08/29 10:34:07;;;;;;;6.20;3.13;;;;;;;13.81;100.00;100194.75;4973669;28;20050;-70
2023/08/29 10:36:38;;;;;;;6.25;2.80;;;;;;;13.89;100.00;100201.84;4974845;28;20046;-70
2023/08/29 10:39:09;;;;;;;10.32;3.38;;;;;;;13.99;100.00;100198.81;4975448;28;20058;-69
2023/08/29 10:41:52;;;;;;;4.55;3.05;;;;;;;14.04;100.00;100196.34;4974359;28;20047;-69
2023/08/29 10:44:40;;;;;;;5.75;2.80;;;;;;;14.15;100.00;100197.69;4973202;28;20050;-70
2023/08/29 10:47:30;;;;;;;6.38;3.95;;;;;;;14.25;100.00;100193.63;4973716;28;20046;-70
2023/08/29 10:49:58;;;;;;;4.55;3.60;;;;;;;14.17;100.00;100184.84;4972174;28;20042;-70
2023/08/29 10:52:46;;;;;;;5.90;3.42;;;;;;;14.17;100.00;100182.16;4973483;28;20057;-69
2023/08/29 10:55:24;;;;;;;8.07;3.40;;;;;;;14.15;100.00;100190.44;4973126;28;20054;-69
2023/08/29 10:57:51;;;;;;;9.93;3.83;;;;;;;14.14;100.00;100191.47;4973971;28;20051;-69
2023/08/29 11:00:41;;;;;;;8.18;3.33;;;;;;;14.30;100.00;100198.44;4974157;28;20051;-71
2023/08/29 11:03:08;;;;;;;7.00;4.13;;;;;;;14.29;100.00;100205.69;4967434;28;20046;-70
2023/08/29 11:05:39;;;;;;;7.53;3.45;;;;;;;14.24;100.00;100205.44;4974438;28;20521;-71
2023/08/29 11:08:21;;;;;;;10.93;3.43;;;;;;;14.40;100.00;100211.56;4974884;28;20121;-69
2023/08/29 11:11:20;;;;;;;7.07;3.53;;;;;;;14.45;100.00;100220.72;4973632;28;20463;-70
2023/08/29 11:14:00;;;;;;;4.28;3.28;;;;;;;14.56;100.00;100213.09;4973377;28;20118;-71
2023/08/29 11:16:28;;;;;;;7.40;3.88;;;;;;;14.87;100.00;100218.06;4973377;28;20081;-70
2023/08/29 11:19:05;;;;;;;8.70;3.53;;;;;;;14.83;100.00;100203.31;4972481;28;20102;-70
2023/08/29 11:21:32;;;;;;;6.35;4.38;;;;;;;14.89;100.00;100203.34;4973853;28;20598;-68
2023/08/29 11:23:59;;;;;;;6.03;3.78;;;;;;;15.01;100.00;100200.88;4973776;28;20054;-69
2023/08/29 11:26:45;;;;;;;7.35;3.40;;;;;;;15.07;100.00;100196.56;4974592;28;20058;-69
2023/08/29 11:29:12;;;;;;;6.80;3.55;;;;;;;15.23;100.00;100191.63;4974031;28;20047;-69